createdAt,value
2016-09-05T00:02:03.819Z,45.5
2016-09-05T00:07:03.943Z,45.5
2016-09-05T00:12:03.644Z,45.5
2016-09-05T00:17:03.926Z,45.4
2016-09-05T00:22:03.854Z,45.2
2016-09-05T00:27:03.746Z,45.2
2016-09-05T00:32:03.709Z,45.2
2016-09-05T00:37:04.001Z,45.6
2016-09-05T00:42:03.951Z,45.8
2016-09-05T00:47:03.732Z,45.8
2016-09-05T00:52:04.011Z,45.7
2016-09-05T00:57:04.027Z,45.3
2016-09-05T01:02:03.801Z,45.8
2016-09-05T01:07:03.709Z,45.8
2016-09-05T01:12:03.518Z,45.6
2016-09-05T01:17:04.410Z,45.7
2016-09-05T01:22:03.984Z,45.3
2016-09-05T01:27:04.411Z,45.3
2016-09-05T01:32:04.177Z,45.3
2016-09-05T01:37:03.955Z,45.7
2016-09-05T01:42:03.973Z,45.6
2016-09-05T01:47:03.903Z,45.9
2016-09-05T01:52:03.369Z,45.6
2016-09-05T01:57:04.272Z,45.4
2016-09-05T02:02:03.968Z,45.4
2016-09-05T02:07:03.609Z,45.4
2016-09-05T02:12:03.620Z,45.5
2016-09-05T02:17:04.394Z,45.7
2016-09-05T02:22:04.140Z,45.2
2016-09-05T02:27:03.682Z,45.3
2016-09-05T02:32:04.263Z,45.1
2016-09-05T02:37:03.892Z,45.0
2016-09-05T02:42:03.950Z,45.1
2016-09-05T02:47:03.906Z,44.9
2016-09-05T02:52:04.223Z,44.9
2016-09-05T02:57:04.180Z,44.9
2016-09-05T03:02:05.997Z,44.8
2016-09-05T03:07:03.520Z,44.8
2016-09-05T03:12:03.886Z,44.9
2016-09-05T03:17:03.812Z,45.0
2016-09-05T03:22:04.080Z,44.9
2016-09-05T03:27:03.944Z,44.8
2016-09-05T03:32:04.136Z,45.1
2016-09-05T03:37:04.240Z,45.2
2016-09-05T03:42:04.237Z,45.6
2016-09-05T03:47:04.377Z,45.6
2016-09-05T03:52:03.522Z,45.0
2016-09-05T03:57:03.523Z,45.0
2016-09-05T04:02:03.732Z,45.2
2016-09-05T04:07:03.990Z,45.6
2016-09-05T04:12:04.173Z,45.6
2016-09-05T04:17:10.554Z,45.2
2016-09-05T04:22:03.681Z,45.0
2016-09-05T04:27:03.905Z,45.0
2016-09-05T04:32:31.231Z,45.0
2016-09-05T04:37:03.598Z,44.9
2016-09-05T04:42:04.127Z,45.3
2016-09-05T04:47:35.004Z,45.3
2016-09-05T04:52:03.769Z,45.1
2016-09-05T04:57:03.570Z,44.8
2016-09-05T05:02:31.380Z,44.9
2016-09-05T05:07:04.227Z,44.9
2016-09-05T05:12:04.290Z,45.2
2016-09-05T05:17:37.132Z,45.1
2016-09-05T05:22:04.081Z,45.0
2016-09-05T05:27:04.354Z,45.1
2016-09-05T05:32:37.002Z,45.7
2016-09-05T05:37:03.579Z,45.6
2016-09-05T05:42:03.839Z,45.6
2016-09-05T05:47:37.147Z,46.0
2016-09-05T05:52:04.173Z,45.8
2016-09-05T05:57:03.787Z,45.7
2016-09-05T06:02:37.493Z,45.7
2016-09-05T06:07:04.319Z,45.7
2016-09-05T06:12:04.178Z,45.6
2016-09-05T06:17:37.288Z,45.4
2016-09-05T06:22:04.191Z,45.7
2016-09-05T06:27:03.878Z,45.5
2016-09-05T06:32:37.376Z,45.7
2016-09-05T06:37:04.184Z,45.2
2016-09-05T06:42:03.880Z,45.2
2016-09-05T06:47:36.211Z,45.0
2016-09-05T06:52:03.785Z,45.0
2016-09-05T06:57:03.859Z,45.1
2016-09-05T07:02:37.426Z,44.9
2016-09-05T07:07:03.889Z,44.9
2016-09-05T07:12:03.868Z,45.0
2016-09-05T07:17:35.669Z,45.0
2016-09-05T07:22:03.878Z,45.3
2016-09-05T07:27:03.944Z,44.8
2016-09-05T07:32:34.843Z,44.9
2016-09-05T07:37:03.960Z,44.7
2016-09-05T07:42:03.461Z,44.7
2016-09-05T07:47:33.274Z,45.3
2016-09-05T07:52:04.298Z,45.0
2016-09-05T07:57:03.797Z,44.8
2016-09-05T08:02:37.377Z,44.7
2016-09-05T08:07:03.989Z,44.7
2016-09-05T08:12:03.585Z,45.0
2016-09-05T08:17:35.702Z,45.1
2016-09-05T08:22:03.667Z,44.6
2016-09-05T08:27:04.341Z,44.3
2016-09-05T08:32:31.971Z,44.2
2016-09-05T08:37:04.140Z,44.1
2016-09-05T08:42:03.718Z,44.1
2016-09-05T08:47:33.497Z,44.5
2016-09-05T08:52:03.906Z,44.4
2016-09-05T08:57:03.648Z,44.4
2016-09-05T09:02:37.401Z,44.4
2016-09-05T09:07:04.267Z,44.1
2016-09-05T09:12:03.593Z,44.1
2016-09-05T09:17:36.809Z,44.0
2016-09-05T09:22:04.129Z,43.8
2016-09-05T09:27:04.239Z,43.9
2016-09-05T09:32:37.909Z,44.0
2016-09-05T09:37:03.969Z,43.9
2016-09-05T09:42:04.095Z,44.2
2016-09-05T09:47:37.604Z,44.4
2016-09-05T09:52:03.764Z,44.5
2016-09-05T09:57:03.531Z,44.5
2016-09-05T10:02:37.586Z,44.8
2016-09-05T10:07:03.499Z,44.5
2016-09-05T10:12:03.701Z,44.5
2016-09-05T10:17:33.003Z,44.4
2016-09-05T10:22:03.630Z,44.5
2016-09-05T10:27:04.294Z,44.7
2016-09-05T10:32:32.117Z,44.8
2016-09-05T10:37:03.929Z,44.7
2016-09-05T10:42:03.860Z,44.5
2016-09-05T10:47:32.201Z,44.3
2016-09-05T10:52:03.730Z,44.2
2016-09-05T10:57:03.633Z,43.9
2016-09-05T11:02:36.889Z,44.6
2016-09-05T11:07:04.211Z,44.5
2016-09-05T11:12:04.245Z,44.5
2016-09-05T11:17:38.354Z,43.6
2016-09-05T11:22:04.082Z,43.6
2016-09-05T11:27:04.341Z,43.1
2016-09-05T11:32:37.073Z,43.0
2016-09-05T11:37:03.836Z,43.5
2016-09-05T11:42:03.468Z,43.2
2016-09-05T11:47:30.968Z,43.2
2016-09-05T11:52:04.119Z,43.2
2016-09-05T11:57:03.828Z,43.2
2016-09-05T12:02:37.859Z,43.5
2016-09-05T12:07:04.046Z,43.6
2016-09-05T12:12:03.565Z,43.8
2016-09-05T12:17:32.712Z,43.6
2016-09-05T12:22:03.921Z,43.7
2016-09-05T12:27:04.311Z,43.4
2016-09-05T12:32:34.992Z,43.1
2016-09-05T12:37:04.313Z,42.9
2016-09-05T12:42:03.674Z,42.4
2016-09-05T12:47:37.041Z,42.4
2016-09-05T12:52:03.670Z,42.4
2016-09-05T12:57:04.230Z,42.7
2016-09-05T13:02:32.504Z,42.7
2016-09-05T13:07:04.392Z,42.8
2016-09-05T13:12:04.258Z,42.2
2016-09-05T13:17:37.090Z,41.9
2016-09-05T13:22:04.428Z,42.0
2016-09-05T13:27:03.432Z,42.0
2016-09-05T13:32:32.484Z,42.6
2016-09-05T13:37:04.047Z,42.6
2016-09-05T13:42:03.700Z,42.6
2016-09-05T13:47:32.052Z,42.6
2016-09-05T13:52:04.328Z,42.4
2016-09-05T13:57:04.255Z,42.5
2016-09-05T20:02:03.770Z,44.8
2016-09-05T20:07:04.018Z,44.7
2016-09-05T20:12:04.410Z,44.8
2016-09-05T20:17:03.877Z,44.9
2016-09-05T20:22:04.002Z,44.8
2016-09-05T20:27:04.069Z,44.8
2016-09-05T20:32:04.144Z,44.9
2016-09-05T20:37:03.902Z,44.9
2016-09-05T20:42:04.002Z,44.8
2016-09-05T20:47:04.111Z,44.8
2016-09-05T20:52:03.564Z,44.7
2016-09-05T20:57:03.848Z,44.7
2016-09-05T21:02:03.678Z,44.7
2016-09-05T21:07:03.848Z,44.7
2016-09-05T21:12:03.808Z,44.5
2016-09-05T21:17:23.501Z,44.5
2016-09-05T21:22:04.279Z,44.5
2016-09-05T21:27:03.574Z,44.5
2016-09-05T21:32:03.960Z,44.4
2016-09-05T21:37:03.648Z,44.4
2016-09-05T21:42:03.949Z,44.3
2016-09-05T21:47:04.093Z,44.5
2016-09-05T21:52:04.169Z,44.3
2016-09-05T21:57:03.607Z,44.3
2016-09-05T22:02:04.031Z,44.2
2016-09-05T22:07:04.117Z,44.2
2016-09-05T22:12:03.652Z,44.1
2016-09-05T22:22:04.469Z,43.8
2016-09-05T22:27:03.449Z,44.2
2016-09-05T22:32:03.747Z,44.1
2016-09-05T22:37:03.610Z,44.0
2016-09-05T22:42:03.732Z,44.1
2016-09-05T22:47:03.840Z,44.1
2016-09-05T22:52:03.767Z,44.1
2016-09-05T22:57:03.996Z,43.9
2016-09-05T23:02:04.273Z,44.0
2016-09-05T23:07:03.763Z,44.2
2016-09-05T23:12:04.118Z,44.1
2016-09-05T23:17:04.264Z,44.0
2016-09-05T23:22:03.573Z,43.9
2016-09-05T23:27:03.775Z,43.9
2016-09-05T23:32:04.135Z,43.9
2016-09-05T23:37:04.273Z,43.9
2016-09-05T23:42:04.338Z,43.9
2016-09-05T23:47:03.731Z,44.0
2016-09-05T23:52:03.830Z,43.9
2016-09-05T23:57:03.401Z,43.8
